sensor_id;sensor_type;location;lat;lon;timestamp;pressure;altitude;pressure_sealevel;temperature;humidity
74230;BME280;62589;12.568;99.958;2024-02-14T00:00:10;101184.44;;;31.07;37.60
74230;BME280;62589;12.568;99.958;2024-02-14T00:02:46;101185.34;;;31.12;37.62
74230;BME280;62589;12.568;99.958;2024-02-14T00:05:16;101197.16;;;31.08;37.63
74230;BME280;62589;12.568;99.958;2024-02-14T00:07:42;101198.75;;;31.09;37.70
74230;BME280;62589;12.568;99.958;2024-02-14T00:10:09;101200.81;;;31.13;37.50
74230;BME280;62589;12.568;99.958;2024-02-14T00:12:36;101208.84;;;31.18;37.71
74230;BME280;62589;12.568;99.958;2024-02-14T00:15:04;101214.78;;;31.16;37.53
74230;BME280;62589;12.568;99.958;2024-02-14T00:17:32;101216.38;;;31.17;37.49
74230;BME280;62589;12.568;99.958;2024-02-14T00:20:00;101219.97;;;31.18;37.62
74230;BME280;62589;12.568;99.958;2024-02-14T00:22:26;101214.44;;;31.21;37.71
74230;BME280;62589;12.568;99.958;2024-02-14T00:24:53;101220.06;;;31.25;37.73
74230;BME280;62589;12.568;99.958;2024-02-14T00:27:20;101216.56;;;31.28;38.02
74230;BME280;62589;12.568;99.958;2024-02-14T00:29:46;101220.22;;;31.32;38.15
74230;BME280;62589;12.568;99.958;2024-02-14T00:32:14;101227.47;;;31.36;37.93
74230;BME280;62589;12.568;99.958;2024-02-14T00:34:40;101237.00;;;31.39;38.06
74230;BME280;62589;12.568;99.958;2024-02-14T00:37:07;101241.09;;;31.45;37.95
74230;BME280;62589;12.568;99.958;2024-02-14T00:39:33;101235.59;;;31.49;38.07
74230;BME280;62589;12.568;99.958;2024-02-14T00:42:00;101238.88;;;31.54;38.36
74230;BME280;62589;12.568;99.958;2024-02-14T00:44:26;101249.31;;;31.61;37.90
74230;BME280;62589;12.568;99.958;2024-02-14T00:46:57;101244.63;;;31.65;38.32
74230;BME280;62589;12.568;99.958;2024-02-14T00:49:28;101245.97;;;31.71;38.34
74230;BME280;62589;12.568;99.958;2024-02-14T00:51:54;101242.09;;;31.75;38.09
74230;BME280;62589;12.568;99.958;2024-02-14T00:54:21;101251.69;;;31.82;38.23
74230;BME280;62589;12.568;99.958;2024-02-14T00:56:48;101249.84;;;31.89;38.54
74230;BME280;62589;12.568;99.958;2024-02-14T00:59:15;101256.28;;;31.93;38.58
74230;BME280;62589;12.568;99.958;2024-02-14T01:01:42;101259.19;;;32.00;38.72
74230;BME280;62589;12.568;99.958;2024-02-14T01:04:09;101269.97;;;32.05;38.59
74230;BME280;62589;12.568;99.958;2024-02-14T01:06:35;101264.53;;;32.13;38.60
74230;BME280;62589;12.568;99.958;2024-02-14T01:09:02;101257.50;;;32.19;38.20
74230;BME280;62589;12.568;99.958;2024-02-14T01:11:29;101265.16;;;32.25;38.50
74230;BME280;62589;12.568;99.958;2024-02-14T01:13:56;101268.06;;;32.32;38.26
74230;BME280;62589;12.568;99.958;2024-02-14T01:16:25;101266.59;;;32.38;37.80
74230;BME280;62589;12.568;99.958;2024-02-14T01:18:54;101265.06;;;32.44;38.13
74230;BME280;62589;12.568;99.958;2024-02-14T01:21:20;101274.75;;;32.54;37.66
74230;BME280;62589;12.568;99.958;2024-02-14T01:23:47;101283.59;;;32.60;37.82
74230;BME280;62589;12.568;99.958;2024-02-14T01:26:14;101279.72;;;32.68;37.75
74230;BME280;62589;12.568;99.958;2024-02-14T01:28:40;101285.44;;;32.75;37.33
74230;BME280;62589;12.568;99.958;2024-02-14T01:31:09;101288.31;;;32.82;37.54
74230;BME280;62589;12.568;99.958;2024-02-14T01:33:37;101290.38;;;32.89;36.92
74230;BME280;62589;12.568;99.958;2024-02-14T01:36:03;101302.47;;;33.00;36.97
74230;BME280;62589;12.568;99.958;2024-02-14T01:38:30;101301.38;;;33.08;37.11
74230;BME280;62589;12.568;99.958;2024-02-14T01:41:02;101305.44;;;33.14;36.88
74230;BME280;62589;12.568;99.958;2024-02-14T01:43:29;101309.16;;;33.25;36.90
74230;BME280;62589;12.568;99.958;2024-02-14T01:46:05;101305.69;;;33.32;37.06
74230;BME280;62589;12.568;99.958;2024-02-14T01:48:33;101311.38;;;33.42;36.93
74230;BME280;62589;12.568;99.958;2024-02-14T01:51:01;101305.47;;;33.47;37.14
74230;BME280;62589;12.568;99.958;2024-02-14T01:53:29;101314.75;;;33.59;36.92
74230;BME280;62589;12.568;99.958;2024-02-14T01:55:58;101318.81;;;33.65;37.01
74230;BME280;62589;12.568;99.958;2024-02-14T01:58:25;101317.31;;;33.74;36.25
74230;BME280;62589;12.568;99.958;2024-02-14T02:00:52;101317.41;;;33.82;36.41
74230;BME280;62589;12.568;99.958;2024-02-14T02:03:26;101318.69;;;33.88;36.16
74230;BME280;62589;12.568;99.958;2024-02-14T02:05:53;101319.97;;;33.97;35.95
74230;BME280;62589;12.568;99.958;2024-02-14T02:08:20;101322.03;;;34.04;35.83
74230;BME280;62589;12.568;99.958;2024-02-14T02:10:47;101330.44;;;34.11;35.47
74230;BME280;62589;12.568;99.958;2024-02-14T02:13:13;101330.13;;;34.20;35.76
74230;BME280;62589;12.568;99.958;2024-02-14T02:15:41;101330.19;;;34.27;35.48
74230;BME280;62589;12.568;99.958;2024-02-14T02:18:10;101331.06;;;34.34;35.33
74230;BME280;62589;12.568;99.958;2024-02-14T02:20:37;101331.13;;;34.41;35.58
74230;BME280;62589;12.568;99.958;2024-02-14T02:23:04;101329.22;;;34.49;35.56
74230;BME280;62589;12.568;99.958;2024-02-14T02:25:31;101333.22;;;34.55;35.69
74230;BME280;62589;12.568;99.958;2024-02-14T02:27:57;101328.09;;;34.61;35.63
74230;BME280;62589;12.568;99.958;2024-02-14T02:30:24;101334.53;;;34.72;35.31
74230;BME280;62589;12.568;99.958;2024-02-14T02:32:51;101339.41;;;34.78;34.77
74230;BME280;62589;12.568;99.958;2024-02-14T02:35:18;101334.28;;;34.88;34.98
74230;BME280;62589;12.568;99.958;2024-02-14T02:37:47;101334.69;;;34.93;34.83
74230;BME280;62589;12.568;99.958;2024-02-14T02:40:17;101328.78;;;35.02;34.47
74230;BME280;62589;12.568;99.958;2024-02-14T02:42:44;101330.44;;;35.10;34.02
74230;BME280;62589;12.568;99.958;2024-02-14T02:45:13;101333.22;;;35.17;33.74
74230;BME280;62589;12.568;99.958;2024-02-14T02:47:39;101336.88;;;35.25;33.33
74230;BME280;62589;12.568;99.958;2024-02-14T02:50:06;101338.94;;;35.31;32.89
74230;BME280;62589;12.568;99.958;2024-02-14T02:52:34;101334.13;;;35.35;32.98
74230;BME280;62589;12.568;99.958;2024-02-14T02:55:01;101334.97;;;35.39;32.67
74230;BME280;62589;12.568;99.958;2024-02-14T02:57:28;101331.81;;;35.48;32.57
74230;BME280;62589;12.568;99.958;2024-02-14T02:59:58;101332.22;;;35.57;32.58
74230;BME280;62589;12.568;99.958;2024-02-14T03:02:24;101333.03;;;35.61;32.55
74230;BME280;62589;12.568;99.958;2024-02-14T03:04:52;101330.28;;;35.68;32.39
74230;BME280;62589;12.568;99.958;2024-02-14T03:07:19;101331.91;;;35.76;32.63
74230;BME280;62589;12.568;99.958;2024-02-14T03:09:46;101333.13;;;35.83;32.65
74230;BME280;62589;12.568;99.958;2024-02-14T03:12:13;101328.75;;;35.89;32.89
74230;BME280;62589;12.568;99.958;2024-02-14T03:14:42;101340.72;;;36.00;32.85
74230;BME280;62589;12.568;99.958;2024-02-14T03:17:10;101323.97;;;36.03;32.74
74230;BME280;62589;12.568;99.958;2024-02-14T03:19:36;101326.00;;;36.10;33.03
74230;BME280;62589;12.568;99.958;2024-02-14T03:22:05;101327.19;;;36.16;32.76
74230;BME280;62589;12.568;99.958;2024-02-14T03:24:35;101321.59;;;36.23;32.68
74230;BME280;62589;12.568;99.958;2024-02-14T03:27:03;101316.84;;;36.27;32.98
74230;BME280;62589;12.568;99.958;2024-02-14T03:29:32;101313.66;;;36.32;32.66
74230;BME280;62589;12.568;99.958;2024-02-14T03:32:01;101314.41;;;36.40;32.42
74230;BME280;62589;12.568;99.958;2024-02-14T03:34:30;101314.03;;;36.45;31.93
74230;BME280;62589;12.568;99.958;2024-02-14T03:36:59;101314.81;;;36.53;31.53
74230;BME280;62589;12.568;99.958;2024-02-14T03:39:29;101310.84;;;36.54;31.03
74230;BME280;62589;12.568;99.958;2024-02-14T03:41:56;101304.00;;;36.58;30.87
74230;BME280;62589;12.568;99.958;2024-02-14T03:44:23;101305.59;;;36.63;30.83
74230;BME280;62589;12.568;99.958;2024-02-14T03:46:49;101293.63;;;36.66;30.61
74230;BME280;62589;12.568;99.958;2024-02-14T03:49:16;101295.63;;;36.72;30.50
74230;BME280;62589;12.568;99.958;2024-02-14T03:51:43;101293.63;;;36.73;30.66
74230;BME280;62589;12.568;99.958;2024-02-14T03:54:09;101294.81;;;36.79;30.69
74230;BME280;62589;12.568;99.958;2024-02-14T03:56:37;101292.78;;;36.87;30.61
74230;BME280;62589;12.568;99.958;2024-02-14T03:59:03;101293.56;;;36.94;30.66
74230;BME280;62589;12.568;99.958;2024-02-14T04:01:31;101279.16;;;36.99;31.00
74230;BME280;62589;12.568;99.958;2024-02-14T04:03:58;101273.13;;;37.04;30.73
74230;BME280;62589;12.568;99.958;2024-02-14T04:06:25;101269.91;;;37.09;31.12
74230;BME280;62589;12.568;99.958;2024-02-14T04:08:52;101269.09;;;37.12;31.23
74230;BME280;62589;12.568;99.958;2024-02-14T04:11:19;101266.31;;;37.20;30.75
74230;BME280;62589;12.568;99.958;2024-02-14T04:13:45;101259.06;;;37.22;30.77
74230;BME280;62589;12.568;99.958;2024-02-14T04:16:12;101257.06;;;37.30;30.61
74230;BME280;62589;12.568;99.958;2024-02-14T04:18:38;101261.44;;;37.34;30.69
74230;BME280;62589;12.568;99.958;2024-02-14T04:21:07;101247.81;;;37.40;30.59
74230;BME280;62589;12.568;99.958;2024-02-14T04:23:34;101242.94;;;37.44;30.13
74230;BME280;62589;12.568;99.958;2024-02-14T04:26:01;101246.16;;;37.46;30.13
74230;BME280;62589;12.568;99.958;2024-02-14T04:28:27;101243.31;;;37.53;30.11
74230;BME280;62589;12.568;99.958;2024-02-14T04:30:54;101232.50;;;37.55;29.98
74230;BME280;62589;12.568;99.958;2024-02-14T04:33:21;101239.25;;;37.61;29.90
74230;BME280;62589;12.568;99.958;2024-02-14T04:35:48;101232.81;;;37.64;29.95
74230;BME280;62589;12.568;99.958;2024-02-14T04:38:14;101226.81;;;37.69;30.00
74230;BME280;62589;12.568;99.958;2024-02-14T04:40:41;101220.38;;;37.72;30.13
74230;BME280;62589;12.568;99.958;2024-02-14T04:43:07;101215.56;;;37.76;30.00
74230;BME280;62589;12.568;99.958;2024-02-14T04:45:34;101215.53;;;37.80;29.88
74230;BME280;62589;12.568;99.958;2024-02-14T04:48:01;101217.06;;;37.84;30.86
74230;BME280;62589;12.568;99.958;2024-02-14T04:50:29;101207.44;;;37.89;31.16
74230;BME280;62589;12.568;99.958;2024-02-14T04:52:56;101201.81;;;37.93;31.09
74230;BME280;62589;12.568;99.958;2024-02-14T04:55:23;101205.00;;;37.95;31.08
74230;BME280;62589;12.568;99.958;2024-02-14T04:57:49;101196.13;;;38.00;30.91
74230;BME280;62589;12.568;99.958;2024-02-14T05:00:16;101192.91;;;38.01;30.99
74230;BME280;62589;12.568;99.958;2024-02-14T05:02:42;101186.03;;;38.06;31.47
74230;BME280;62589;12.568;99.958;2024-02-14T05:05:09;101182.03;;;38.10;31.70
74230;BME280;62589;12.568;99.958;2024-02-14T05:07:36;101181.22;;;38.10;31.27
74230;BME280;62589;12.568;99.958;2024-02-14T05:10:03;101174.41;;;38.11;31.56
74230;BME280;62589;12.568;99.958;2024-02-14T05:12:30;101179.19;;;38.14;31.34
74230;BME280;62589;12.568;99.958;2024-02-14T05:14:56;101165.19;;;38.14;31.19
74230;BME280;62589;12.568;99.958;2024-02-14T05:17:23;101160.38;;;38.14;31.25
74230;BME280;62589;12.568;99.958;2024-02-14T05:19:49;101157.53;;;38.18;31.60
74230;BME280;62589;12.568;99.958;2024-02-14T05:22:16;101153.91;;;38.21;31.62
74230;BME280;62589;12.568;99.958;2024-02-14T05:24:43;101144.66;;;38.24;32.02
74230;BME280;62589;12.568;99.958;2024-02-14T05:27:09;101130.97;;;38.26;32.14
74230;BME280;62589;12.568;99.958;2024-02-14T05:29:36;101149.78;;;38.29;31.97
74230;BME280;62589;12.568;99.958;2024-02-14T05:32:02;101130.94;;;38.30;32.54
74230;BME280;62589;12.568;99.958;2024-02-14T05:34:29;101129.69;;;38.34;32.74
74230;BME280;62589;12.568;99.958;2024-02-14T05:36:55;101116.06;;;38.36;32.37
74230;BME280;62589;12.568;99.958;2024-02-14T05:39:22;101112.41;;;38.39;32.46
74230;BME280;62589;12.568;99.958;2024-02-14T05:41:48;101114.00;;;38.40;32.96
74230;BME280;62589;12.568;99.958;2024-02-14T05:44:20;101118.00;;;38.43;32.74
74230;BME280;62589;12.568;99.958;2024-02-14T05:46:48;101101.16;;;38.43;32.76
74230;BME280;62589;12.568;99.958;2024-02-14T05:49:14;101100.38;;;38.42;32.97
74230;BME280;62589;12.568;99.958;2024-02-14T05:51:41;101097.13;;;38.44;32.74
74230;BME280;62589;12.568;99.958;2024-02-14T05:54:08;101087.56;;;38.41;33.27
74230;BME280;62589;12.568;99.958;2024-02-14T05:56:34;101087.56;;;38.41;33.26
74230;BME280;62589;12.568;99.958;2024-02-14T05:59:00;101085.13;;;38.43;33.83
74230;BME280;62589;12.568;99.958;2024-02-14T06:01:27;101080.31;;;38.44;33.61
74230;BME280;62589;12.568;99.958;2024-02-14T06:03:54;101068.28;;;38.43;34.02
74230;BME280;62589;12.568;99.958;2024-02-14T06:06:21;101072.25;;;38.46;34.27
74230;BME280;62589;12.568;99.958;2024-02-14T06:08:49;101067.44;;;38.46;34.55
74230;BME280;62589;12.568;99.958;2024-02-14T06:11:15;101061.81;;;38.46;34.48
74230;BME280;62589;12.568;99.958;2024-02-14T06:13:43;101057.78;;;38.47;34.58
74230;BME280;62589;12.568;99.958;2024-02-14T06:16:09;101058.16;;;38.49;34.73
74230;BME280;62589;12.568;99.958;2024-02-14T06:18:37;101050.56;;;38.50;34.83
74230;BME280;62589;12.568;99.958;2024-02-14T06:21:05;101054.53;;;38.53;34.71
74230;BME280;62589;12.568;99.958;2024-02-14T06:23:32;101037.69;;;38.53;34.59
74230;BME280;62589;12.568;99.958;2024-02-14T06:25:59;101032.47;;;38.55;35.16
74230;BME280;62589;12.568;99.958;2024-02-14T06:28:25;101030.44;;;38.55;35.54
74230;BME280;62589;12.568;99.958;2024-02-14T06:30:52;101027.63;;;38.59;35.22
74230;BME280;62589;12.568;99.958;2024-02-14T06:33:18;101023.22;;;38.58;34.96
74230;BME280;62589;12.568;99.958;2024-02-14T06:35:44;101012.81;;;38.55;34.72
74230;BME280;62589;12.568;99.958;2024-02-14T06:38:11;101021.66;;;38.57;34.97
74230;BME280;62589;12.568;99.958;2024-02-14T06:40:37;101018.06;;;38.53;34.92
74230;BME280;62589;12.568;99.958;2024-02-14T06:43:04;101007.31;;;38.47;34.59
74230;BME280;62589;12.568;99.958;2024-02-14T06:45:32;101000.09;;;38.46;34.94
74230;BME280;62589;12.568;99.958;2024-02-14T06:47:59;101002.09;;;38.46;34.73
74230;BME280;62589;12.568;99.958;2024-02-14T06:50:25;100994.50;;;38.46;34.90
74230;BME280;62589;12.568;99.958;2024-02-14T06:52:52;100991.69;;;38.46;35.25
74230;BME280;62589;12.568;99.958;2024-02-14T06:55:18;100986.44;;;38.48;35.21
74230;BME280;62589;12.568;99.958;2024-02-14T06:57:45;100980.47;;;38.46;35.21
74230;BME280;62589;12.568;99.958;2024-02-14T07:00:12;100974.94;;;38.43;35.28
74230;BME280;62589;12.568;99.958;2024-02-14T07:02:38;100968.94;;;38.41;35.96
74230;BME280;62589;12.568;99.958;2024-02-14T07:05:05;100968.53;;;38.42;36.14
74230;BME280;62589;12.568;99.958;2024-02-14T07:07:33;100962.13;;;38.42;35.84
74230;BME280;62589;12.568;99.958;2024-02-14T07:10:00;100952.91;;;38.41;35.69
74230;BME280;62589;12.568;99.958;2024-02-14T07:12:27;100951.69;;;38.42;35.65
74230;BME280;62589;12.568;99.958;2024-02-14T07:14:56;100942.91;;;38.40;35.54
74230;BME280;62589;12.568;99.958;2024-02-14T07:17:23;100946.09;;;38.42;35.84
74230;BME280;62589;12.568;99.958;2024-02-14T07:19:49;100944.91;;;38.40;36.35
74230;BME280;62589;12.568;99.958;2024-02-14T07:22:16;100938.88;;;38.41;36.26
74230;BME280;62589;12.568;99.958;2024-02-14T07:24:45;100936.09;;;38.41;36.51
74230;BME280;62589;12.568;99.958;2024-02-14T07:27:15;100931.31;;;38.38;36.31
74230;BME280;62589;12.568;99.958;2024-02-14T07:29:42;100927.72;;;38.38;36.27
74230;BME280;62589;12.568;99.958;2024-02-14T07:32:09;100921.38;;;38.34;36.17
74230;BME280;62589;12.568;99.958;2024-02-14T07:34:38;100912.53;;;38.35;36.07
74230;BME280;62589;12.568;99.958;2024-02-14T07:37:08;100915.00;;;38.30;35.97
74230;BME280;62589;12.568;99.958;2024-02-14T07:39:34;100910.19;;;38.30;36.10
74230;BME280;62589;12.568;99.958;2024-02-14T07:42:02;100905.81;;;38.29;36.55
74230;BME280;62589;12.568;99.958;2024-02-14T07:44:29;100907.00;;;38.28;36.51
74230;BME280;62589;12.568;99.958;2024-02-14T07:46:55;100909.81;;;38.28;36.36
74230;BME280;62589;12.568;99.958;2024-02-14T07:49:21;100899.03;;;38.27;36.68
74230;BME280;62589;12.568;99.958;2024-02-14T07:51:48;100893.84;;;38.25;36.57
74230;BME280;62589;12.568;99.958;2024-02-14T07:54:14;100901.03;;;38.26;36.72
74230;BME280;62589;12.568;99.958;2024-02-14T07:56:41;100889.09;;;38.22;36.72
74230;BME280;62589;12.568;99.958;2024-02-14T07:59:07;100889.91;;;38.23;36.80
74230;BME280;62589;12.568;99.958;2024-02-14T08:01:34;100886.34;;;38.19;36.59
74230;BME280;62589;12.568;99.958;2024-02-14T08:04:00;100881.16;;;38.17;36.94
74230;BME280;62589;12.568;99.958;2024-02-14T08:06:27;100880.78;;;38.15;37.36
74230;BME280;62589;12.568;99.958;2024-02-14T08:08:53;100877.59;;;38.13;37.07
74230;BME280;62589;12.568;99.958;2024-02-14T08:11:23;100880.41;;;38.13;36.77
74230;BME280;62589;12.568;99.958;2024-02-14T08:13:49;100881.63;;;38.12;37.13
74230;BME280;62589;12.568;99.958;2024-02-14T08:16:16;100882.84;;;38.11;36.86
74230;BME280;62589;12.568;99.958;2024-02-14T08:18:43;100876.84;;;38.09;36.45
74230;BME280;62589;12.568;99.958;2024-02-14T08:21:14;100871.22;;;38.09;36.77
74230;BME280;62589;12.568;99.958;2024-02-14T08:23:40;100870.00;;;38.10;36.54
74230;BME280;62589;12.568;99.958;2024-02-14T08:26:08;100872.06;;;38.06;36.82
74230;BME280;62589;12.568;99.958;2024-02-14T08:28:39;100862.16;;;38.01;37.14
74230;BME280;62589;12.568;99.958;2024-02-14T08:31:12;100868.16;;;38.00;36.85
74230;BME280;62589;12.568;99.958;2024-02-14T08:33:38;100872.56;;;38.01;37.45
74230;BME280;62589;12.568;99.958;2024-02-14T08:36:05;100863.00;;;37.98;36.96
74230;BME280;62589;12.568;99.958;2024-02-14T08:38:33;100866.16;;;38.00;37.16
74230;BME280;62589;12.568;99.958;2024-02-14T08:41:04;100859.81;;;37.96;36.85
74230;BME280;62589;12.568;99.958;2024-02-14T08:43:30;100861.06;;;37.92;35.57
74230;BME280;62589;12.568;99.958;2024-02-14T08:45:57;100862.69;;;37.89;36.25
74230;BME280;62589;12.568;99.958;2024-02-14T08:48:24;100860.81;;;37.82;33.88
74230;BME280;62589;12.568;99.958;2024-02-14T08:50:53;100854.59;;;37.64;34.08
74230;BME280;62589;12.568;99.958;2024-02-14T08:53:19;100844.25;;;37.61;34.87
74230;BME280;62589;12.568;99.958;2024-02-14T08:55:46;100851.41;;;37.62;35.40
74230;BME280;62589;12.568;99.958;2024-02-14T08:58:13;100851.53;;;37.55;36.19
74230;BME280;62589;12.568;99.958;2024-02-14T09:00:40;100848.16;;;37.37;36.65
74230;BME280;62589;12.568;99.958;2024-02-14T09:03:06;100843.81;;;37.32;37.28
74230;BME280;62589;12.568;99.958;2024-02-14T09:05:33;100845.81;;;37.32;36.82
74230;BME280;62589;12.568;99.958;2024-02-14T09:08:00;100843.13;;;37.21;36.71
74230;BME280;62589;12.568;99.958;2024-02-14T09:10:27;100847.91;;;37.21;37.22
74230;BME280;62589;12.568;99.958;2024-02-14T09:12:53;100848.81;;;37.10;37.75
74230;BME280;62589;12.568;99.958;2024-02-14T09:15:20;100853.97;;;37.15;37.80
74230;BME280;62589;12.568;99.958;2024-02-14T09:17:47;100846.78;;;37.14;38.09
74230;BME280;62589;12.568;99.958;2024-02-14T09:20:14;100851.19;;;37.12;38.09
74230;BME280;62589;12.568;99.958;2024-02-14T09:22:40;100854.03;;;37.08;38.35
74230;BME280;62589;12.568;99.958;2024-02-14T09:25:10;100845.63;;;37.08;38.46
74230;BME280;62589;12.568;99.958;2024-02-14T09:27:36;100849.25;;;37.05;38.80
74230;BME280;62589;12.568;99.958;2024-02-14T09:30:03;100855.75;;;36.99;38.25
74230;BME280;62589;12.568;99.958;2024-02-14T09:32:33;100856.97;;;36.98;39.19
74230;BME280;62589;12.568;99.958;2024-02-14T09:34:59;100853.00;;;36.92;39.04
74230;BME280;62589;12.568;99.958;2024-02-14T09:37:27;100857.03;;;36.91;38.43
74230;BME280;62589;12.568;99.958;2024-02-14T09:39:54;100857.06;;;36.87;39.27
74230;BME280;62589;12.568;99.958;2024-02-14T09:42:28;100858.31;;;36.79;39.29
74230;BME280;62589;12.568;99.958;2024-02-14T09:44:59;100860.38;;;36.75;38.68
74230;BME280;62589;12.568;99.958;2024-02-14T09:47:30;100860.03;;;36.62;38.73
74230;BME280;62589;12.568;99.958;2024-02-14T09:50:02;100857.22;;;36.66;38.73
74230;BME280;62589;12.568;99.958;2024-02-14T09:52:29;100858.94;;;36.53;40.45
74230;BME280;62589;12.568;99.958;2024-02-14T09:54:59;100871.06;;;36.35;40.45
74230;BME280;62589;12.568;99.958;2024-02-14T09:57:26;100871.09;;;36.28;41.03
74230;BME280;62589;12.568;99.958;2024-02-14T09:59:56;100871.78;;;36.43;41.17
74230;BME280;62589;12.568;99.958;2024-02-14T10:02:23;100871.06;;;36.35;41.37
74230;BME280;62589;12.568;99.958;2024-02-14T10:04:49;100871.44;;;36.37;41.19
74230;BME280;62589;12.568;99.958;2024-02-14T10:07:16;100878.16;;;36.43;41.14
74230;BME280;62589;12.568;99.958;2024-02-14T10:09:43;100877.34;;;36.46;41.16
74230;BME280;62589;12.568;99.958;2024-02-14T10:12:09;100883.78;;;36.40;41.72
74230;BME280;62589;12.568;99.958;2024-02-14T10:14:36;100884.19;;;36.42;41.58
74230;BME280;62589;12.568;99.958;2024-02-14T10:17:06;100895.44;;;36.35;41.88
74230;BME280;62589;12.568;99.958;2024-02-14T10:19:35;100897.03;;;36.32;42.50
74230;BME280;62589;12.568;99.958;2024-02-14T10:22:02;100895.06;;;36.22;42.67
74230;BME280;62589;12.568;99.958;2024-02-14T10:24:31;100896.66;;;36.23;42.64
74230;BME280;62589;12.568;99.958;2024-02-14T10:27:00;100905.84;;;36.20;42.74
74230;BME280;62589;12.568;99.958;2024-02-14T10:29:27;100903.94;;;36.10;42.75
74230;BME280;62589;12.568;99.958;2024-02-14T10:31:55;100907.13;;;36.12;42.75
74230;BME280;62589;12.568;99.958;2024-02-14T10:34:25;100910.72;;;36.09;42.73
74230;BME280;62589;12.568;99.958;2024-02-14T10:36:56;100912.72;;;36.08;42.91
74230;BME280;62589;12.568;99.958;2024-02-14T10:39:25;100918.72;;;36.07;42.96
74230;BME280;62589;12.568;99.958;2024-02-14T10:41:53;100908.03;;;35.95;43.86
74230;BME280;62589;12.568;99.958;2024-02-14T10:44:20;100912.81;;;35.91;44.02
74230;BME280;62589;12.568;99.958;2024-02-14T10:46:49;100919.22;;;35.88;44.38
74230;BME280;62589;12.568;99.958;2024-02-14T10:49:20;100919.59;;;35.90;44.47
74230;BME280;62589;12.568;99.958;2024-02-14T10:51:47;100921.22;;;35.87;44.37
74230;BME280;62589;12.568;99.958;2024-02-14T10:54:14;100924.81;;;35.88;44.21
74230;BME280;62589;12.568;99.958;2024-02-14T10:56:49;100934.78;;;35.85;44.39
74230;BME280;62589;12.568;99.958;2024-02-14T10:59:20;100931.22;;;35.77;45.00
74230;BME280;62589;12.568;99.958;2024-02-14T11:01:48;100926.81;;;35.80;45.00
74230;BME280;62589;12.568;99.958;2024-02-14T11:04:16;100931.59;;;35.76;44.83
74230;BME280;62589;12.568;99.958;2024-02-14T11:06:53;100937.59;;;35.78;45.05
74230;BME280;62589;12.568;99.958;2024-02-14T11:09:36;100931.63;;;35.72;44.57
74230;BME280;62589;12.568;99.958;2024-02-14T11:12:09;100931.63;;;35.72;44.96
74230;BME280;62589;12.568;99.958;2024-02-14T11:14:36;100931.25;;;35.63;44.90
74230;BME280;62589;12.568;99.958;2024-02-14T11:17:14;100930.06;;;35.64;45.07
74230;BME280;62589;12.568;99.958;2024-02-14T11:19:43;100929.66;;;35.59;45.24
74230;BME280;62589;12.568;99.958;2024-02-14T11:22:18;100939.22;;;35.61;45.18
74230;BME280;62589;12.568;99.958;2024-02-14T11:24:48;100940.03;;;35.58;45.58
74230;BME280;62589;12.568;99.958;2024-02-14T11:27:18;100944.81;;;35.58;45.29
74230;BME280;62589;12.568;99.958;2024-02-14T11:29:53;100952.81;;;35.59;45.45
74230;BME280;62589;12.568;99.958;2024-02-14T11:32:22;100949.63;;;35.57;45.52
74230;BME280;62589;12.568;99.958;2024-02-14T11:34:55;100947.66;;;35.54;45.70
74230;BME280;62589;12.568;99.958;2024-02-14T11:37:30;100961.63;;;35.54;45.95
74230;BME280;62589;12.568;99.958;2024-02-14T11:39:57;100961.19;;;35.56;45.88
74230;BME280;62589;12.568;99.958;2024-02-14T11:42:24;100964.78;;;35.56;45.71
74230;BME280;62589;12.568;99.958;2024-02-14T11:44:51;100963.56;;;35.57;45.76
74230;BME280;62589;12.568;99.958;2024-02-14T11:47:17;100967.19;;;35.54;45.73
74230;BME280;62589;12.568;99.958;2024-02-14T11:49:44;100968.75;;;35.55;45.87
74230;BME280;62589;12.568;99.958;2024-02-14T11:52:12;100970.34;;;35.56;45.82
74230;BME280;62589;12.568;99.958;2024-02-14T11:54:40;100973.16;;;35.56;45.68
74230;BME280;62589;12.568;99.958;2024-02-14T11:57:11;100986.72;;;35.61;45.48
74230;BME280;62589;12.568;99.958;2024-02-14T11:59:38;100979.94;;;35.59;45.46
74230;BME280;62589;12.568;99.958;2024-02-14T12:02:05;100983.53;;;35.59;45.46
74230;BME280;62589;12.568;99.958;2024-02-14T12:04:31;100994.28;;;35.61;45.46
74230;BME280;62589;12.568;99.958;2024-02-14T12:07:02;100994.28;;;35.61;45.45
74230;BME280;62589;12.568;99.958;2024-02-14T12:09:29;100993.50;;;35.60;45.46
74230;BME280;62589;12.568;99.958;2024-02-14T12:11:57;101001.47;;;35.62;45.43
74230;BME280;62589;12.568;99.958;2024-02-14T12:14:23;100997.47;;;35.63;45.11
74230;BME280;62589;12.568;99.958;2024-02-14T12:17:00;101009.84;;;35.62;45.26
74230;BME280;62589;12.568;99.958;2024-02-14T12:19:28;101009.06;;;35.61;45.42
74230;BME280;62589;12.568;99.958;2024-02-14T12:21:55;101004.25;;;35.58;45.14
74230;BME280;62589;12.568;99.958;2024-02-14T12:24:28;101009.06;;;35.58;45.07
74230;BME280;62589;12.568;99.958;2024-02-14T12:26:57;101012.25;;;35.56;44.70
74230;BME280;62589;12.568;99.958;2024-02-14T12:29:24;101020.66;;;35.53;44.64
74230;BME280;62589;12.568;99.958;2024-02-14T12:32:03;101016.28;;;35.48;44.74
74230;BME280;62589;12.568;99.958;2024-02-14T12:34:32;101024.25;;;35.46;44.52
74230;BME280;62589;12.568;99.958;2024-02-14T12:36:58;101033.41;;;35.43;44.46
74230;BME280;62589;12.568;99.958;2024-02-14T12:39:29;101034.22;;;35.43;44.46
74230;BME280;62589;12.568;99.958;2024-02-14T12:41:56;101043.00;;;35.42;44.26